Terminal Aerodrome Forecast
Issued by NWS Shreveport, LA

Home | Current Version | Previous Version | Text Only | Print | Product List | Glossary On
Versions: 1 2 3 4 5 6 7 8 9 10 11 12 13 14 15 16
000
FTUS44 KSHV 172320
TAFTYR
TAF
KTYR 172320Z 1800/1824 13005KT P6SM SCT040 SCT060 BKN250
     FM180600 13006KT P6SM VCTS SCT040CB OVC080
      TEMPO 1806/1810 VRB12G20KT 2SM TSRA BR OVC015CB
     FM181000 VRB06KT 2SM TSRA BR OVC015CB
     FM181600 10007KT P6SM VCTS SCT015CB BKN100 OVC250
     FM182000 12007KT P6SM SCT035 BKN180 BKN250=

USA.gov is the U.S. government's official web portal to all federal, state and local government web resources and services.